createdAt,value
2019-01-11T00:00:29.316Z,14.60
2019-01-11T00:03:16.617Z,14.50
2019-01-11T00:06:03.959Z,16.73
2019-01-11T00:08:50.647Z,16.63
2019-01-11T00:11:37.463Z,15.30
2019-01-11T00:14:24.436Z,16.67
2019-01-11T00:17:11.839Z,16.77
2019-01-11T00:20:03.464Z,14.00
2019-01-11T00:22:47.657Z,18.33
2019-01-11T00:25:34.742Z,16.37
2019-01-11T00:28:21.559Z,15.70
2019-01-11T00:31:08.376Z,17.50
2019-01-11T00:33:55.645Z,15.80
2019-01-11T00:36:42.939Z,15.60
2019-01-11T00:39:29.986Z,16.37
2019-01-11T00:42:17.198Z,17.50
2019-01-11T00:45:07.609Z,16.20
2019-01-11T00:47:54.672Z,15.20
2019-01-11T00:50:41.380Z,16.50
2019-01-11T00:53:28.699Z,16.70
2019-01-11T00:56:15.993Z,13.63
2019-01-11T00:59:03.146Z,16.97
2019-01-11T01:01:50.129Z,16.57
2019-01-11T01:04:37.323Z,16.20
2019-01-11T01:07:24.704Z,17.77
2019-01-11T01:10:12.057Z,18.43
2019-01-11T01:12:59.004Z,17.73
2019-01-11T01:15:46.098Z,16.13
2019-01-11T01:18:32.786Z,14.13
2019-01-11T01:21:19.496Z,16.87
2019-01-11T01:24:06.459Z,16.03
2019-01-11T01:26:53.210Z,15.50
2019-01-11T01:29:40.161Z,16.63
2019-01-11T01:32:27.277Z,14.47
2019-01-11T01:35:14.470Z,15.10
2019-01-11T01:38:01.722Z,17.13
2019-01-11T01:40:49.018Z,16.27
2019-01-11T01:43:36.210Z,17.00
2019-01-11T01:46:22.888Z,18.00
2019-01-11T01:49:10.238Z,19.37
2019-01-11T01:51:57.007Z,19.07
2019-01-11T01:54:44.050Z,17.80
2019-01-11T01:57:31.070Z,16.90
2019-01-11T02:00:19.907Z,18.30
2019-01-11T02:03:07.008Z,18.13
2019-01-11T02:05:53.764Z,16.53
2019-01-11T02:08:40.652Z,13.70
2019-01-11T02:11:27.474Z,17.73
2019-01-11T02:14:14.386Z,15.70
2019-01-11T02:17:01.750Z,15.40
2019-01-11T02:19:48.536Z,17.70
2019-01-11T02:22:35.809Z,15.63
2019-01-11T02:25:22.982Z,14.93
2019-01-11T02:28:10.348Z,15.67
2019-01-11T02:30:57.246Z,13.57
2019-01-11T02:33:44.512Z,16.07
2019-01-11T02:36:31.807Z,14.50
2019-01-11T02:39:19.236Z,16.80
2019-01-11T02:42:06.231Z,15.73
2019-01-11T02:44:53.233Z,15.03
2019-01-11T02:47:39.935Z,16.23
2019-01-11T02:50:26.759Z,13.87
2019-01-11T02:53:14.067Z,14.23
2019-01-11T02:56:01.100Z,12.43
2019-01-11T02:58:48.200Z,12.87
2019-01-11T03:01:35.401Z,12.20
2019-01-11T03:04:22.649Z,13.23
2019-01-11T03:07:09.830Z,13.67
2019-01-11T03:09:56.523Z,13.03
2019-01-11T03:12:43.909Z,13.90
2019-01-11T03:15:31.031Z,12.10
2019-01-11T03:18:18.341Z,13.03
2019-01-11T03:21:05.624Z,11.53
2019-01-11T03:23:52.965Z,13.03
2019-01-11T03:26:39.904Z,12.30
2019-01-11T03:29:26.938Z,11.77
2019-01-11T03:32:13.962Z,10.23
2019-01-11T03:35:02.862Z,9.67
2019-01-11T03:37:50.165Z,10.83
2019-01-11T03:40:37.418Z,11.90
2019-01-11T03:43:24.444Z,8.97
2019-01-11T03:46:11.854Z,9.00
2019-01-11T03:48:58.914Z,8.27
2019-01-11T03:51:45.888Z,8.23
2019-01-11T03:54:32.925Z,9.10
2019-01-11T03:57:20.253Z,9.23
2019-01-11T04:00:13.012Z,8.43
2019-01-11T04:03:00.308Z,8.47
2019-01-11T04:05:47.458Z,7.47
2019-01-11T04:08:34.522Z,8.13
2019-01-11T04:11:21.548Z,8.37
2019-01-11T04:14:08.851Z,7.40
2019-01-11T04:16:56.183Z,8.27
2019-01-11T04:19:42.891Z,8.40
2019-01-11T04:22:29.978Z,7.87
2019-01-11T04:25:19.135Z,7.23
2019-01-11T04:28:06.121Z,7.50
2019-01-11T04:30:53.477Z,7.20
2019-01-11T04:33:40.252Z,8.33
2019-01-11T04:36:27.172Z,10.20
2019-01-11T04:39:14.479Z,8.20
2019-01-11T04:42:01.809Z,8.23
2019-01-11T04:44:48.891Z,8.27
2019-01-11T04:47:35.901Z,8.60
2019-01-11T04:50:23.213Z,8.77
2019-01-11T04:53:10.675Z,7.90
2019-01-11T04:55:57.908Z,7.13
2019-01-11T04:58:45.203Z,8.27
2019-01-11T05:01:32.426Z,7.30
2019-01-11T05:04:19.096Z,7.47
2019-01-11T05:07:05.742Z,7.60
2019-01-11T05:09:52.967Z,8.00
2019-01-11T05:12:39.966Z,7.90
2019-01-11T05:15:26.937Z,7.50
2019-01-11T05:18:14.188Z,8.00
2019-01-11T05:21:01.422Z,8.70
2019-01-11T05:23:48.665Z,9.77
2019-01-11T05:26:35.793Z,7.53
2019-01-11T05:29:23.084Z,7.93
2019-01-11T05:32:09.842Z,8.03
2019-01-11T05:34:57.037Z,8.70
2019-01-11T05:37:44.347Z,7.73
2019-01-11T05:40:31.353Z,8.90
2019-01-11T05:43:18.697Z,13.33
2019-01-11T05:46:05.650Z,10.23
2019-01-11T05:48:52.684Z,16.63
2019-01-11T05:51:39.608Z,13.20
2019-01-11T05:54:26.545Z,10.50
2019-01-11T05:57:13.928Z,8.97
2019-01-11T06:00:01.019Z,7.37
2019-01-11T06:02:48.283Z,7.83
2019-01-11T06:05:35.569Z,7.60
2019-01-11T06:08:22.835Z,9.70
2019-01-11T06:11:10.040Z,12.23
2019-01-11T06:13:57.041Z,9.90
2019-01-11T06:16:44.100Z,8.93
2019-01-11T06:19:30.734Z,9.77
2019-01-11T06:22:18.604Z,8.90
2019-01-11T06:25:06.702Z,9.87
2019-01-11T06:27:53.662Z,12.37
2019-01-11T06:30:40.908Z,9.50
2019-01-11T06:33:27.912Z,10.67
2019-01-11T06:36:15.086Z,10.67
2019-01-11T06:39:02.111Z,9.30
2019-01-11T06:41:50.942Z,16.43
2019-01-11T06:44:39.094Z,8.80
2019-01-11T06:47:26.584Z,19.93
2019-01-11T06:50:15.719Z,15.50
2019-01-11T06:53:02.952Z,15.47
2019-01-11T06:55:50.309Z,12.93
2019-01-11T06:58:37.599Z,11.37
2019-01-11T07:01:24.510Z,9.70
2019-01-11T07:04:11.996Z,9.90
2019-01-11T07:06:58.913Z,9.00
2019-01-11T07:09:46.369Z,9.90
2019-01-11T07:12:33.404Z,10.37
2019-01-11T07:15:20.914Z,12.00
2019-01-11T07:18:08.085Z,16.60
2019-01-11T07:20:55.279Z,18.17
2019-01-11T07:23:42.612Z,11.43
2019-01-11T07:26:29.584Z,12.03
2019-01-11T07:29:16.846Z,8.77
2019-01-11T07:32:04.395Z,10.20
2019-01-11T07:34:51.791Z,9.63
2019-01-11T07:37:39.014Z,10.43
2019-01-11T07:40:26.199Z,13.57
2019-01-11T07:43:13.586Z,22.37
2019-01-11T07:46:00.654Z,23.30
2019-01-11T07:48:47.880Z,20.30
2019-01-11T07:51:34.984Z,17.00
2019-01-11T07:54:22.473Z,16.13
2019-01-11T07:57:09.653Z,15.13
2019-01-11T07:59:56.890Z,14.30
2019-01-11T08:02:44.345Z,15.50
2019-01-11T08:05:31.265Z,13.43
2019-01-11T08:08:18.420Z,15.13
2019-01-11T08:11:05.797Z,16.83
2019-01-11T08:13:52.884Z,14.67
2019-01-11T08:16:39.877Z,14.80
2019-01-11T08:19:27.066Z,34.30
2019-01-11T08:22:15.645Z,19.27
2019-01-11T08:25:04.442Z,28.20
2019-01-11T08:27:51.516Z,89.83
2019-01-11T08:30:38.647Z,20.80
2019-01-11T08:33:26.181Z,30.97
2019-01-11T08:36:13.276Z,32.93
2019-01-11T08:39:00.286Z,29.43
2019-01-11T08:41:47.330Z,23.40
2019-01-11T08:44:34.667Z,21.47
2019-01-11T08:47:22.128Z,23.00
2019-01-11T08:50:22.291Z,25.90
2019-01-11T08:53:09.304Z,24.60
2019-01-11T08:55:56.391Z,28.57
2019-01-11T08:58:44.446Z,30.83
2019-01-11T09:01:31.732Z,22.37
2019-01-11T09:04:18.947Z,15.60
2019-01-11T09:07:06.300Z,12.23
2019-01-11T09:09:53.594Z,9.57
2019-01-11T09:12:40.334Z,9.03
2019-01-11T09:15:27.147Z,8.27
2019-01-11T09:18:14.398Z,8.27
2019-01-11T09:21:01.410Z,8.87
2019-01-11T09:23:48.597Z,7.67
2019-01-11T09:26:35.897Z,7.00
2019-01-11T09:29:23.445Z,7.60
2019-01-11T09:32:10.609Z,6.97
2019-01-11T09:34:57.612Z,7.90
2019-01-11T09:37:44.769Z,8.70
2019-01-11T09:40:31.428Z,8.50
2019-01-11T09:43:18.636Z,8.60
2019-01-11T09:46:06.200Z,8.70
2019-01-11T09:48:52.909Z,8.87
2019-01-11T09:51:39.530Z,8.77
2019-01-11T09:54:27.018Z,10.33
2019-01-11T09:57:14.243Z,10.67
2019-01-11T10:00:01.688Z,9.67
2019-01-11T10:02:50.507Z,9.27
2019-01-11T10:05:37.431Z,12.00
2019-01-11T10:08:24.339Z,9.07
2019-01-11T10:11:11.608Z,8.77
2019-01-11T10:13:58.818Z,10.30
2019-01-11T10:16:45.858Z,9.33
2019-01-11T10:19:32.856Z,8.87
2019-01-11T10:22:20.436Z,10.30
2019-01-11T10:25:09.581Z,8.80
2019-01-11T10:27:56.444Z,9.13
2019-01-11T10:30:43.484Z,9.03
2019-01-11T10:33:36.153Z,8.60
2019-01-11T10:36:19.384Z,8.50
2019-01-11T10:39:07.724Z,7.57
2019-01-11T10:41:54.933Z,8.50
2019-01-11T10:44:42.432Z,8.90
2019-01-11T10:47:29.960Z,8.70
2019-01-11T10:50:17.756Z,9.90
2019-01-11T10:53:04.827Z,10.67
2019-01-11T10:55:52.114Z,11.37
2019-01-11T10:58:39.477Z,10.23
2019-01-11T11:01:26.718Z,10.07
2019-01-11T11:04:13.810Z,9.77
2019-01-11T11:07:00.959Z,11.00
2019-01-11T11:09:48.305Z,9.93
2019-01-11T11:12:35.370Z,11.47
2019-01-11T11:15:23.482Z,10.67
2019-01-11T11:18:10.600Z,9.23
2019-01-11T11:20:57.892Z,11.43
2019-01-11T11:23:45.044Z,9.73
2019-01-11T11:26:31.985Z,9.67
2019-01-11T11:29:18.860Z,10.17
2019-01-11T11:32:06.153Z,10.57
2019-01-11T11:34:53.412Z,9.17
2019-01-11T11:37:40.412Z,9.30
2019-01-11T11:40:27.660Z,10.17
2019-01-11T11:43:16.484Z,10.23
2019-01-11T11:46:03.475Z,9.63
2019-01-11T11:48:50.460Z,9.53
2019-01-11T11:51:41.289Z,8.63
2019-01-11T11:54:25.885Z,9.17
2019-01-11T11:57:13.081Z,8.37
2019-01-11T12:00:00.145Z,9.77
2019-01-11T12:02:47.124Z,10.17
2019-01-11T12:05:34.150Z,9.27
2019-01-11T12:08:21.107Z,8.80
2019-01-11T12:11:08.156Z,9.20
2019-01-11T12:13:55.385Z,9.73
2019-01-11T12:16:42.680Z,10.60
2019-01-11T12:19:29.614Z,10.03
2019-01-11T12:22:16.790Z,8.03
2019-01-11T12:25:04.817Z,8.63
2019-01-11T12:27:52.049Z,8.87
2019-01-11T12:30:39.189Z,8.63
2019-01-11T12:33:26.371Z,8.90
2019-01-11T12:36:13.425Z,9.07
2019-01-11T12:39:00.452Z,10.37
2019-01-11T12:41:47.108Z,9.47
2019-01-11T12:44:34.310Z,8.87
2019-01-11T12:47:21.322Z,9.63
2019-01-11T12:50:14.216Z,9.33
2019-01-11T12:53:01.242Z,8.20
2019-01-11T12:55:48.566Z,9.87
2019-01-11T12:58:35.309Z,10.00
2019-01-11T13:01:22.518Z,8.00
2019-01-11T13:04:09.744Z,8.97
2019-01-11T13:06:57.011Z,7.87
2019-01-11T13:09:44.396Z,8.67
2019-01-11T13:12:31.388Z,7.20
2019-01-11T13:15:19.734Z,6.47
2019-01-11T13:18:06.808Z,8.73
2019-01-11T13:20:54.017Z,6.97
2019-01-11T13:23:41.385Z,5.87
2019-01-11T13:26:28.644Z,6.03
2019-01-11T13:29:15.469Z,5.47
2019-01-11T13:32:02.229Z,7.60
2019-01-11T13:34:49.410Z,7.63
2019-01-11T13:37:36.563Z,6.03
2019-01-11T13:40:23.928Z,7.00
2019-01-11T13:43:10.967Z,7.70
2019-01-11T13:45:58.073Z,5.70
2019-01-11T13:48:45.422Z,5.40
2019-01-11T13:51:32.747Z,4.10
2019-01-11T13:54:19.522Z,4.47
2019-01-11T13:57:06.658Z,3.13
2019-01-11T13:59:53.969Z,3.43
2019-01-11T14:02:40.998Z,3.43
2019-01-11T14:05:28.256Z,3.77
2019-01-11T14:08:15.535Z,4.60
2019-01-11T14:11:02.605Z,2.93
2019-01-11T14:13:49.765Z,2.63
2019-01-11T14:16:36.674Z,2.57
2019-01-11T14:19:23.681Z,2.97
2019-01-11T14:22:13.894Z,2.80
2019-01-11T14:24:59.224Z,3.53
2019-01-11T14:27:46.545Z,2.17
2019-01-11T14:30:33.855Z,2.60
2019-01-11T14:33:21.547Z,2.73
2019-01-11T14:36:08.649Z,2.80
2019-01-11T14:38:55.624Z,3.40
2019-01-11T14:41:42.880Z,3.70
2019-01-11T14:44:29.923Z,4.07
2019-01-11T14:47:16.929Z,3.70
2019-01-11T14:50:07.232Z,5.03
2019-01-11T14:52:54.240Z,3.73
2019-01-11T14:55:41.176Z,3.97
2019-01-11T14:58:28.822Z,3.87
2019-01-11T15:01:16.059Z,4.17
2019-01-11T15:04:03.201Z,3.33
2019-01-11T15:06:50.040Z,3.00
2019-01-11T15:09:36.898Z,3.23
2019-01-11T15:12:23.884Z,2.57
2019-01-11T15:15:10.918Z,2.60
2019-01-11T15:17:58.212Z,2.27
2019-01-11T15:20:45.182Z,2.57
2019-01-11T15:23:32.286Z,3.10
2019-01-11T15:26:19.337Z,3.40
2019-01-11T15:29:06.372Z,3.13
2019-01-11T15:31:53.109Z,3.47
2019-01-11T15:34:41.090Z,3.90
2019-01-11T15:37:28.341Z,5.10
2019-01-11T15:40:18.870Z,4.67
2019-01-11T15:43:06.141Z,4.13
2019-01-11T15:45:57.897Z,5.00
2019-01-11T15:48:46.827Z,4.87
2019-01-11T15:51:34.153Z,5.33
2019-01-11T15:54:21.176Z,5.00
2019-01-11T15:57:08.177Z,5.47
2019-01-11T16:00:01.110Z,5.43
2019-01-11T16:02:48.596Z,4.50
2019-01-11T16:05:35.772Z,4.70
2019-01-11T16:08:22.865Z,4.73
2019-01-11T16:11:12.676Z,5.10
2019-01-11T16:14:14.677Z,4.87
2019-01-11T16:17:05.025Z,4.90
2019-01-11T16:19:52.171Z,4.47
2019-01-11T16:22:39.743Z,4.57
2019-01-11T16:25:26.501Z,4.47
2019-01-11T16:28:13.611Z,4.57
2019-01-11T16:31:00.728Z,5.43
2019-01-11T16:33:48.011Z,5.10
2019-01-11T16:36:34.934Z,4.73
2019-01-11T16:39:22.142Z,7.83
2019-01-11T16:42:09.438Z,7.30
2019-01-11T16:44:56.729Z,6.20
2019-01-11T16:47:44.150Z,6.57
2019-01-11T16:50:31.129Z,6.43
2019-01-11T16:53:18.263Z,5.80
2019-01-11T16:56:05.569Z,6.10
2019-01-11T16:58:52.882Z,8.37
2019-01-11T17:01:40.111Z,9.17
2019-01-11T17:04:27.146Z,14.77
2019-01-11T17:07:14.501Z,6.60
2019-01-11T17:10:02.341Z,11.63
2019-01-11T17:12:49.710Z,7.67
2019-01-11T17:15:36.793Z,9.00
2019-01-11T17:18:24.190Z,9.57
2019-01-11T17:21:11.250Z,5.80
2019-01-11T17:23:58.490Z,7.03
2019-01-11T17:26:45.636Z,5.43
2019-01-11T17:29:32.781Z,7.30
2019-01-11T17:32:20.046Z,5.97
2019-01-11T17:35:07.428Z,6.53
2019-01-11T17:37:54.145Z,6.97
2019-01-11T17:40:41.357Z,8.00
2019-01-11T17:43:28.416Z,8.87
2019-01-11T17:46:15.368Z,11.63
2019-01-11T17:49:02.271Z,8.50
2019-01-11T17:51:49.282Z,12.37
2019-01-11T17:54:35.935Z,8.63
2019-01-11T17:57:22.922Z,8.63
2019-01-11T18:00:12.953Z,11.77
2019-01-11T18:02:59.696Z,12.20
2019-01-11T18:05:46.968Z,14.90
2019-01-11T18:08:34.166Z,14.00
2019-01-11T18:11:20.904Z,14.83
2019-01-11T18:14:08.209Z,11.83
2019-01-11T18:16:55.460Z,11.17
2019-01-11T18:19:42.597Z,13.87
2019-01-11T18:22:29.606Z,13.27
2019-01-11T18:25:17.030Z,13.03
2019-01-11T18:28:04.560Z,14.17
2019-01-11T18:30:51.829Z,11.83
2019-01-11T18:33:39.028Z,13.93
2019-01-11T18:36:26.241Z,11.93
2019-01-11T18:39:13.416Z,11.33
2019-01-11T18:42:00.898Z,10.60
2019-01-11T18:44:47.578Z,11.90
2019-01-11T18:47:34.793Z,11.50
2019-01-11T18:50:23.544Z,12.53
2019-01-11T18:53:13.858Z,10.83
2019-01-11T18:56:05.180Z,10.27
2019-01-11T18:58:47.990Z,9.83
2019-01-11T19:01:35.309Z,9.07
2019-01-11T19:04:22.599Z,8.23
2019-01-11T19:07:09.760Z,8.37
2019-01-11T19:09:56.839Z,9.80
2019-01-11T19:12:44.464Z,8.23
2019-01-11T19:15:31.441Z,9.17
2019-01-11T19:18:18.622Z,11.07
2019-01-11T19:21:05.797Z,10.47
2019-01-11T19:23:52.765Z,11.90
2019-01-11T19:26:40.056Z,11.33
2019-01-11T19:29:26.834Z,11.10
2019-01-11T19:32:14.047Z,10.90
2019-01-11T19:35:00.740Z,12.93
2019-01-11T19:37:47.922Z,11.70
2019-01-11T19:40:34.907Z,9.87
2019-01-11T19:43:24.558Z,10.17
2019-01-11T19:46:12.008Z,13.07
2019-01-11T19:48:59.113Z,10.00
2019-01-11T19:51:46.162Z,10.47
2019-01-11T19:54:32.931Z,11.73
2019-01-11T19:57:19.647Z,10.20
2019-01-11T20:00:15.889Z,11.53
2019-01-11T20:03:02.896Z,12.27
2019-01-11T20:05:49.885Z,10.17
2019-01-11T20:08:36.970Z,10.80
2019-01-11T20:11:23.766Z,10.00
2019-01-11T20:14:11.120Z,11.57
2019-01-11T20:16:58.335Z,9.27
2019-01-11T20:19:45.719Z,7.97
2019-01-11T20:22:32.916Z,9.83
2019-01-11T20:25:22.439Z,10.37
2019-01-11T20:28:09.602Z,11.17
2019-01-11T20:30:56.758Z,10.40
2019-01-11T20:33:43.936Z,12.17
2019-01-11T20:36:33.215Z,9.43
2019-01-11T20:39:20.212Z,9.33
2019-01-11T20:42:07.570Z,9.33
2019-01-11T20:44:54.352Z,8.83
2019-01-11T20:47:41.695Z,9.77
2019-01-11T20:50:28.961Z,11.00
2019-01-11T20:53:16.128Z,9.07
2019-01-11T20:56:03.559Z,8.03
2019-01-11T20:58:50.938Z,8.50
2019-01-11T21:01:37.935Z,9.03
2019-01-11T21:04:25.490Z,10.50
2019-01-11T21:07:12.504Z,7.60
2019-01-11T21:09:59.561Z,8.13
2019-01-11T21:12:46.629Z,8.80
2019-01-11T21:15:33.669Z,8.00
2019-01-11T21:18:20.632Z,9.20
2019-01-11T21:21:07.849Z,7.23
2019-01-11T21:23:55.057Z,7.00
2019-01-11T21:26:41.694Z,6.90
2019-01-11T21:29:28.785Z,6.60
2019-01-11T21:32:16.122Z,6.73
2019-01-11T21:35:03.278Z,6.77
2019-01-11T21:37:50.328Z,6.90
2019-01-11T21:40:37.430Z,6.07
2019-01-11T21:43:24.634Z,7.43
2019-01-11T21:46:11.814Z,7.73
2019-01-11T21:48:59.172Z,6.30
2019-01-11T21:51:46.413Z,7.07
2019-01-11T21:54:33.148Z,6.10
2019-01-11T21:57:20.219Z,6.37
2019-01-11T22:00:16.217Z,6.53
2019-01-11T22:03:03.934Z,6.50
2019-01-11T22:05:51.042Z,6.63
2019-01-11T22:08:38.091Z,6.30
2019-01-11T22:11:25.355Z,8.93
2019-01-11T22:14:12.441Z,6.40
2019-01-11T22:16:59.652Z,8.03
2019-01-11T22:19:46.895Z,5.93
2019-01-11T22:22:34.265Z,6.30
2019-01-11T22:25:21.293Z,8.13
2019-01-11T22:28:08.573Z,7.20
2019-01-11T22:30:55.745Z,6.57
2019-01-11T22:33:42.654Z,6.83
2019-01-11T22:36:29.897Z,6.67
2019-01-11T22:39:16.850Z,6.03
2019-01-11T22:42:04.223Z,5.80
2019-01-11T22:44:51.302Z,5.80
2019-01-11T22:47:38.662Z,5.70
2019-01-11T22:50:25.778Z,5.17
2019-01-11T22:53:13.082Z,5.63
2019-01-11T22:56:00.369Z,4.90
2019-01-11T22:58:47.653Z,5.70
2019-01-11T23:01:38.011Z,6.17
2019-01-11T23:04:24.915Z,6.53
2019-01-11T23:07:14.977Z,6.87
2019-01-11T23:10:02.673Z,6.67
2019-01-11T23:12:53.310Z,8.93
2019-01-11T23:15:40.311Z,7.57
2019-01-11T23:18:27.076Z,6.73
2019-01-11T23:21:14.068Z,9.93
2019-01-11T23:24:01.164Z,7.13
2019-01-11T23:26:48.376Z,8.97
2019-01-11T23:29:35.562Z,8.43
2019-01-11T23:32:22.726Z,8.67
2019-01-11T23:35:09.805Z,8.07
2019-01-11T23:37:56.612Z,7.30
2019-01-11T23:40:44.007Z,8.23
2019-01-11T23:43:30.729Z,8.57
2019-01-11T23:46:17.741Z,8.03
2019-01-11T23:49:05.179Z,7.50
2019-01-11T23:51:52.130Z,7.30
2019-01-11T23:54:39.389Z,8.73
2019-01-11T23:57:26.663Z,8.20
